sensor_id;sensor_type;location;lat;lon;timestamp;temperature;humidity
64654;DHT22;51065;48.884;12.598;2023-10-19T00:01:09;6.30;99.90
64654;DHT22;51065;48.884;12.598;2023-10-19T00:03:35;6.30;99.90
64654;DHT22;51065;48.884;12.598;2023-10-19T00:06:01;6.30;99.90
64654;DHT22;51065;48.884;12.598;2023-10-19T00:08:27;6.30;99.90
64654;DHT22;51065;48.884;12.598;2023-10-19T00:11:02;6.30;99.90
64654;DHT22;51065;48.884;12.598;2023-10-19T00:13:30;6.30;99.90
64654;DHT22;51065;48.884;12.598;2023-10-19T00:15:56;6.20;99.90
64654;DHT22;51065;48.884;12.598;2023-10-19T00:18:25;6.20;99.90
64654;DHT22;51065;48.884;12.598;2023-10-19T00:20:52;6.10;99.90
64654;DHT22;51065;48.884;12.598;2023-10-19T00:23:19;6.10;99.90
64654;DHT22;51065;48.884;12.598;2023-10-19T00:25:57;6.00;99.90
64654;DHT22;51065;48.884;12.598;2023-10-19T00:28:24;6.00;99.90
64654;DHT22;51065;48.884;12.598;2023-10-19T00:30:54;6.00;99.90
64654;DHT22;51065;48.884;12.598;2023-10-19T00:33:25;6.10;99.90
64654;DHT22;51065;48.884;12.598;2023-10-19T00:35:54;6.20;99.90
64654;DHT22;51065;48.884;12.598;2023-10-19T00:38:27;6.30;99.90
64654;DHT22;51065;48.884;12.598;2023-10-19T00:40:56;6.40;99.90
64654;DHT22;51065;48.884;12.598;2023-10-19T00:43:31;6.50;99.90
64654;DHT22;51065;48.884;12.598;2023-10-19T00:46:02;6.60;99.90
64654;DHT22;51065;48.884;12.598;2023-10-19T00:48:29;6.80;99.90
64654;DHT22;51065;48.884;12.598;2023-10-19T00:50:55;6.80;99.90
64654;DHT22;51065;48.884;12.598;2023-10-19T00:53:37;6.80;99.90
64654;DHT22;51065;48.884;12.598;2023-10-19T00:56:03;6.90;99.90
64654;DHT22;51065;48.884;12.598;2023-10-19T00:58:32;6.90;99.90
64654;DHT22;51065;48.884;12.598;2023-10-19T01:01:04;7.00;99.90
64654;DHT22;51065;48.884;12.598;2023-10-19T01:03:31;7.00;99.90
64654;DHT22;51065;48.884;12.598;2023-10-19T01:06:01;7.10;99.90
64654;DHT22;51065;48.884;12.598;2023-10-19T01:08:31;7.10;99.90
64654;DHT22;51065;48.884;12.598;2023-10-19T01:11:05;7.10;99.90
64654;DHT22;51065;48.884;12.598;2023-10-19T01:13:31;7.20;99.90
64654;DHT22;51065;48.884;12.598;2023-10-19T01:16:00;7.20;99.90
64654;DHT22;51065;48.884;12.598;2023-10-19T01:18:26;7.20;99.90
64654;DHT22;51065;48.884;12.598;2023-10-19T01:20:58;7.30;99.90
64654;DHT22;51065;48.884;12.598;2023-10-19T01:23:27;7.30;99.90
64654;DHT22;51065;48.884;12.598;2023-10-19T01:25:58;7.30;99.90
64654;DHT22;51065;48.884;12.598;2023-10-19T01:28:35;7.30;99.90
64654;DHT22;51065;48.884;12.598;2023-10-19T01:31:11;7.30;99.90
64654;DHT22;51065;48.884;12.598;2023-10-19T01:33:42;7.30;99.90
64654;DHT22;51065;48.884;12.598;2023-10-19T01:36:09;7.40;99.90
64654;DHT22;51065;48.884;12.598;2023-10-19T01:38:41;7.30;99.90
64654;DHT22;51065;48.884;12.598;2023-10-19T01:41:08;7.30;99.90
64654;DHT22;51065;48.884;12.598;2023-10-19T01:43:37;7.30;99.90
64654;DHT22;51065;48.884;12.598;2023-10-19T01:46:05;7.20;99.90
64654;DHT22;51065;48.884;12.598;2023-10-19T01:48:40;7.20;99.90
64654;DHT22;51065;48.884;12.598;2023-10-19T01:51:07;7.20;99.90
64654;DHT22;51065;48.884;12.598;2023-10-19T01:53:37;7.10;99.90
64654;DHT22;51065;48.884;12.598;2023-10-19T01:56:05;7.10;99.90
64654;DHT22;51065;48.884;12.598;2023-10-19T01:58:37;7.10;99.90
64654;DHT22;51065;48.884;12.598;2023-10-19T02:01:04;7.00;99.90
64654;DHT22;51065;48.884;12.598;2023-10-19T02:03:55;7.00;99.90
64654;DHT22;51065;48.884;12.598;2023-10-19T02:06:25;7.00;99.90
64654;DHT22;51065;48.884;12.598;2023-10-19T02:09:10;7.00;99.90
64654;DHT22;51065;48.884;12.598;2023-10-19T02:11:45;7.00;99.90
64654;DHT22;51065;48.884;12.598;2023-10-19T02:14:12;7.10;99.90
64654;DHT22;51065;48.884;12.598;2023-10-19T02:16:42;7.10;99.90
64654;DHT22;51065;48.884;12.598;2023-10-19T02:19:09;7.10;99.90
64654;DHT22;51065;48.884;12.598;2023-10-19T02:21:35;7.10;99.90
64654;DHT22;51065;48.884;12.598;2023-10-19T02:24:13;7.10;99.90
64654;DHT22;51065;48.884;12.598;2023-10-19T02:26:40;7.10;99.90
64654;DHT22;51065;48.884;12.598;2023-10-19T02:29:06;7.10;99.90
64654;DHT22;51065;48.884;12.598;2023-10-19T02:31:40;7.10;99.90
64654;DHT22;51065;48.884;12.598;2023-10-19T02:34:06;7.10;99.90
64654;DHT22;51065;48.884;12.598;2023-10-19T02:36:33;7.20;99.90
64654;DHT22;51065;48.884;12.598;2023-10-19T02:39:00;7.20;99.90
64654;DHT22;51065;48.884;12.598;2023-10-19T02:41:37;7.20;99.90
64654;DHT22;51065;48.884;12.598;2023-10-19T02:44:23;7.20;99.90
64654;DHT22;51065;48.884;12.598;2023-10-19T02:46:55;7.20;99.90
64654;DHT22;51065;48.884;12.598;2023-10-19T02:49:24;7.30;99.90
64654;DHT22;51065;48.884;12.598;2023-10-19T02:51:52;7.40;99.90
64654;DHT22;51065;48.884;12.598;2023-10-19T02:54:20;7.40;99.90
64654;DHT22;51065;48.884;12.598;2023-10-19T02:56:51;7.50;99.90
64654;DHT22;51065;48.884;12.598;2023-10-19T02:59:19;7.50;99.90
64654;DHT22;51065;48.884;12.598;2023-10-19T03:01:55;7.50;99.90
64654;DHT22;51065;48.884;12.598;2023-10-19T03:04:42;7.50;99.90
64654;DHT22;51065;48.884;12.598;2023-10-19T03:07:09;7.50;99.90
64654;DHT22;51065;48.884;12.598;2023-10-19T03:09:38;7.60;99.90
64654;DHT22;51065;48.884;12.598;2023-10-19T03:12:14;7.60;99.90
64654;DHT22;51065;48.884;12.598;2023-10-19T03:14:40;7.50;99.90
64654;DHT22;51065;48.884;12.598;2023-10-19T03:17:09;7.60;99.90
64654;DHT22;51065;48.884;12.598;2023-10-19T03:19:35;7.50;99.90
64654;DHT22;51065;48.884;12.598;2023-10-19T03:22:01;7.60;99.90
64654;DHT22;51065;48.884;12.598;2023-10-19T03:24:30;7.60;99.90
64654;DHT22;51065;48.884;12.598;2023-10-19T03:27:05;7.60;99.90
64654;DHT22;51065;48.884;12.598;2023-10-19T03:29:38;7.60;99.90
64654;DHT22;51065;48.884;12.598;2023-10-19T03:32:05;7.60;99.90
64654;DHT22;51065;48.884;12.598;2023-10-19T03:34:31;7.60;99.90
64654;DHT22;51065;48.884;12.598;2023-10-19T03:37:01;7.60;99.90
64654;DHT22;51065;48.884;12.598;2023-10-19T03:39:33;7.50;99.90
64654;DHT22;51065;48.884;12.598;2023-10-19T03:41:59;7.50;99.90
64654;DHT22;51065;48.884;12.598;2023-10-19T03:44:26;7.50;99.90
64654;DHT22;51065;48.884;12.598;2023-10-19T03:46:52;7.50;99.90
64654;DHT22;51065;48.884;12.598;2023-10-19T03:49:23;7.50;99.90
64654;DHT22;51065;48.884;12.598;2023-10-19T03:51:56;7.50;99.90
64654;DHT22;51065;48.884;12.598;2023-10-19T03:54:26;7.60;99.90
64654;DHT22;51065;48.884;12.598;2023-10-19T03:56:52;7.60;99.90
64654;DHT22;51065;48.884;12.598;2023-10-19T03:59:18;7.60;99.90
64654;DHT22;51065;48.884;12.598;2023-10-19T04:01:44;7.60;99.90
64654;DHT22;51065;48.884;12.598;2023-10-19T04:04:10;7.70;99.90
64654;DHT22;51065;48.884;12.598;2023-10-19T04:06:36;7.70;99.90
64654;DHT22;51065;48.884;12.598;2023-10-19T04:09:05;7.70;99.90
64654;DHT22;51065;48.884;12.598;2023-10-19T04:11:32;7.70;99.90
64654;DHT22;51065;48.884;12.598;2023-10-19T04:13:59;7.70;99.90
64654;DHT22;51065;48.884;12.598;2023-10-19T04:16:29;7.70;99.90
64654;DHT22;51065;48.884;12.598;2023-10-19T04:18:56;7.70;99.90
64654;DHT22;51065;48.884;12.598;2023-10-19T04:21:23;7.70;99.90
64654;DHT22;51065;48.884;12.598;2023-10-19T04:23:48;7.70;99.90
64654;DHT22;51065;48.884;12.598;2023-10-19T04:26:14;7.70;99.90
64654;DHT22;51065;48.884;12.598;2023-10-19T04:28:46;7.70;99.90
64654;DHT22;51065;48.884;12.598;2023-10-19T04:31:15;7.70;99.90
64654;DHT22;51065;48.884;12.598;2023-10-19T04:33:42;7.70;99.90
64654;DHT22;51065;48.884;12.598;2023-10-19T04:36:11;7.80;99.90
64654;DHT22;51065;48.884;12.598;2023-10-19T04:38:37;7.80;99.90
64654;DHT22;51065;48.884;12.598;2023-10-19T04:41:07;7.80;99.90
64654;DHT22;51065;48.884;12.598;2023-10-19T04:43:37;7.80;99.90
64654;DHT22;51065;48.884;12.598;2023-10-19T04:46:05;7.80;99.90
64654;DHT22;51065;48.884;12.598;2023-10-19T04:48:33;7.80;99.90
64654;DHT22;51065;48.884;12.598;2023-10-19T04:51:01;7.80;99.90
64654;DHT22;51065;48.884;12.598;2023-10-19T04:53:26;7.80;99.90
64654;DHT22;51065;48.884;12.598;2023-10-19T04:55:52;7.80;99.90
64654;DHT22;51065;48.884;12.598;2023-10-19T04:58:17;7.70;99.90
64654;DHT22;51065;48.884;12.598;2023-10-19T05:00:43;7.80;99.90
64654;DHT22;51065;48.884;12.598;2023-10-19T05:03:09;7.70;99.90
64654;DHT22;51065;48.884;12.598;2023-10-19T05:05:34;7.80;99.90
64654;DHT22;51065;48.884;12.598;2023-10-19T05:08:03;7.80;99.90
64654;DHT22;51065;48.884;12.598;2023-10-19T05:10:29;7.80;99.90
64654;DHT22;51065;48.884;12.598;2023-10-19T05:12:55;7.80;99.90
64654;DHT22;51065;48.884;12.598;2023-10-19T05:15:20;7.80;99.90
64654;DHT22;51065;48.884;12.598;2023-10-19T05:17:46;7.90;99.90
64654;DHT22;51065;48.884;12.598;2023-10-19T05:20:11;7.80;99.90
64654;DHT22;51065;48.884;12.598;2023-10-19T05:22:37;7.90;99.90
64654;DHT22;51065;48.884;12.598;2023-10-19T05:25:03;7.90;99.90
64654;DHT22;51065;48.884;12.598;2023-10-19T05:27:32;7.90;99.90
64654;DHT22;51065;48.884;12.598;2023-10-19T05:29:57;7.90;99.90
64654;DHT22;51065;48.884;12.598;2023-10-19T05:32:23;7.90;99.90
64654;DHT22;51065;48.884;12.598;2023-10-19T05:34:49;7.90;99.90
64654;DHT22;51065;48.884;12.598;2023-10-19T05:37:15;7.90;99.90
64654;DHT22;51065;48.884;12.598;2023-10-19T05:39:41;7.90;99.90
64654;DHT22;51065;48.884;12.598;2023-10-19T05:42:07;7.80;99.90
64654;DHT22;51065;48.884;12.598;2023-10-19T05:44:33;7.80;99.90
64654;DHT22;51065;48.884;12.598;2023-10-19T05:47:00;7.80;99.90
64654;DHT22;51065;48.884;12.598;2023-10-19T05:49:25;7.80;99.90
64654;DHT22;51065;48.884;12.598;2023-10-19T05:51:51;7.80;99.90
64654;DHT22;51065;48.884;12.598;2023-10-19T05:54:16;7.80;99.90
64654;DHT22;51065;48.884;12.598;2023-10-19T05:56:42;7.80;99.90
64654;DHT22;51065;48.884;12.598;2023-10-19T05:59:08;7.80;99.90
64654;DHT22;51065;48.884;12.598;2023-10-19T06:01:35;7.80;99.90
64654;DHT22;51065;48.884;12.598;2023-10-19T06:04:03;7.80;99.90
64654;DHT22;51065;48.884;12.598;2023-10-19T06:06:28;7.80;99.90
64654;DHT22;51065;48.884;12.598;2023-10-19T06:08:54;7.90;99.90
64654;DHT22;51065;48.884;12.598;2023-10-19T06:11:20;7.90;99.90
64654;DHT22;51065;48.884;12.598;2023-10-19T06:13:46;8.00;99.90
64654;DHT22;51065;48.884;12.598;2023-10-19T06:16:13;8.00;99.90
64654;DHT22;51065;48.884;12.598;2023-10-19T06:18:39;8.10;99.90
64654;DHT22;51065;48.884;12.598;2023-10-19T06:21:05;8.10;99.90
64654;DHT22;51065;48.884;12.598;2023-10-19T06:23:30;8.20;99.90
64654;DHT22;51065;48.884;12.598;2023-10-19T06:25:59;8.20;99.90
64654;DHT22;51065;48.884;12.598;2023-10-19T06:28:29;8.30;99.90
64654;DHT22;51065;48.884;12.598;2023-10-19T06:30:57;8.30;99.90
64654;DHT22;51065;48.884;12.598;2023-10-19T06:33:22;8.30;99.90
64654;DHT22;51065;48.884;12.598;2023-10-19T06:35:51;8.30;99.90
64654;DHT22;51065;48.884;12.598;2023-10-19T06:38:17;8.30;99.90
64654;DHT22;51065;48.884;12.598;2023-10-19T06:40:42;8.40;99.90
64654;DHT22;51065;48.884;12.598;2023-10-19T06:43:08;8.40;99.90
64654;DHT22;51065;48.884;12.598;2023-10-19T06:45:33;8.50;99.90
64654;DHT22;51065;48.884;12.598;2023-10-19T06:47:59;8.70;99.90
64654;DHT22;51065;48.884;12.598;2023-10-19T06:50:29;8.70;99.90
64654;DHT22;51065;48.884;12.598;2023-10-19T06:52:55;8.80;99.90
64654;DHT22;51065;48.884;12.598;2023-10-19T06:55:21;8.90;99.90
64654;DHT22;51065;48.884;12.598;2023-10-19T06:57:53;9.00;99.90
64654;DHT22;51065;48.884;12.598;2023-10-19T07:00:21;9.10;99.90
64654;DHT22;51065;48.884;12.598;2023-10-19T07:02:48;9.30;99.90
64654;DHT22;51065;48.884;12.598;2023-10-19T07:05:14;9.60;99.90
64654;DHT22;51065;48.884;12.598;2023-10-19T07:07:44;10.20;99.90
64654;DHT22;51065;48.884;12.598;2023-10-19T07:10:12;10.50;99.90
64654;DHT22;51065;48.884;12.598;2023-10-19T07:12:40;10.70;99.90
64654;DHT22;51065;48.884;12.598;2023-10-19T07:15:07;11.00;99.90
64654;DHT22;51065;48.884;12.598;2023-10-19T07:17:36;11.00;99.90
64654;DHT22;51065;48.884;12.598;2023-10-19T07:20:04;10.90;99.90
64654;DHT22;51065;48.884;12.598;2023-10-19T07:22:32;10.90;99.90
64654;DHT22;51065;48.884;12.598;2023-10-19T07:24:58;10.70;99.90
64654;DHT22;51065;48.884;12.598;2023-10-19T07:27:23;10.40;99.90
64654;DHT22;51065;48.884;12.598;2023-10-19T07:29:53;10.30;99.90
64654;DHT22;51065;48.884;12.598;2023-10-19T07:32:18;10.20;99.90
64654;DHT22;51065;48.884;12.598;2023-10-19T07:34:44;10.20;99.90
64654;DHT22;51065;48.884;12.598;2023-10-19T07:37:10;10.10;99.90
64654;DHT22;51065;48.884;12.598;2023-10-19T07:39:44;10.10;99.90
64654;DHT22;51065;48.884;12.598;2023-10-19T07:42:10;10.10;99.90
64654;DHT22;51065;48.884;12.598;2023-10-19T07:44:36;10.20;99.90
64654;DHT22;51065;48.884;12.598;2023-10-19T07:47:02;10.10;99.90
64654;DHT22;51065;48.884;12.598;2023-10-19T07:49:27;10.10;99.90
64654;DHT22;51065;48.884;12.598;2023-10-19T07:51:53;10.30;99.90
64654;DHT22;51065;48.884;12.598;2023-10-19T07:54:18;10.50;99.90
64654;DHT22;51065;48.884;12.598;2023-10-19T07:56:46;10.90;99.90
64654;DHT22;51065;48.884;12.598;2023-10-19T07:59:12;11.50;73.20
64654;DHT22;51065;48.884;12.598;2023-10-19T08:01:39;12.20;1.00
64654;DHT22;51065;48.884;12.598;2023-10-19T08:04:05;12.80;1.00
64654;DHT22;51065;48.884;12.598;2023-10-19T08:06:31;13.30;99.90
64654;DHT22;51065;48.884;12.598;2023-10-19T08:08:57;13.80;99.90
64654;DHT22;51065;48.884;12.598;2023-10-19T08:11:27;13.70;99.90
64654;DHT22;51065;48.884;12.598;2023-10-19T08:13:59;13.40;99.90
64654;DHT22;51065;48.884;12.598;2023-10-19T08:16:25;12.70;99.90
64654;DHT22;51065;48.884;12.598;2023-10-19T08:18:53;12.20;1.00
64654;DHT22;51065;48.884;12.598;2023-10-19T08:21:18;11.80;1.00
64654;DHT22;51065;48.884;12.598;2023-10-19T08:23:44;11.40;1.00
64654;DHT22;51065;48.884;12.598;2023-10-19T08:26:11;11.30;1.00
64654;DHT22;51065;48.884;12.598;2023-10-19T08:28:37;11.20;18.90
64654;DHT22;51065;48.884;12.598;2023-10-19T08:31:02;11.40;1.90
64654;DHT22;51065;48.884;12.598;2023-10-19T08:33:30;11.80;1.00
64654;DHT22;51065;48.884;12.598;2023-10-19T08:35:59;12.30;1.00
64654;DHT22;51065;48.884;12.598;2023-10-19T08:38:25;12.70;99.90
64654;DHT22;51065;48.884;12.598;2023-10-19T08:40:51;12.90;99.90
64654;DHT22;51065;48.884;12.598;2023-10-19T08:43:20;13.50;99.90
64654;DHT22;51065;48.884;12.598;2023-10-19T08:45:46;13.40;99.90
64654;DHT22;51065;48.884;12.598;2023-10-19T08:48:12;13.00;99.90
64654;DHT22;51065;48.884;12.598;2023-10-19T08:50:39;13.00;99.90
64654;DHT22;51065;48.884;12.598;2023-10-19T08:53:07;13.00;99.90
64654;DHT22;51065;48.884;12.598;2023-10-19T08:55:39;13.20;80.20
64654;DHT22;51065;48.884;12.598;2023-10-19T08:58:05;13.20;99.90
64654;DHT22;51065;48.884;12.598;2023-10-19T09:00:51;13.20;99.90
64654;DHT22;51065;48.884;12.598;2023-10-19T09:03:20;13.60;47.50
64654;DHT22;51065;48.884;12.598;2023-10-19T09:05:47;13.40;99.90
64654;DHT22;51065;48.884;12.598;2023-10-19T09:08:16;13.60;99.90
64654;DHT22;51065;48.884;12.598;2023-10-19T09:10:44;13.40;94.10
64654;DHT22;51065;48.884;12.598;2023-10-19T09:13:13;13.30;99.90
64654;DHT22;51065;48.884;12.598;2023-10-19T09:15:41;13.30;99.90
64654;DHT22;51065;48.884;12.598;2023-10-19T09:18:22;13.20;99.90
64654;DHT22;51065;48.884;12.598;2023-10-19T09:20:51;12.90;99.90
64654;DHT22;51065;48.884;12.598;2023-10-19T09:23:33;12.60;1.00
64654;DHT22;51065;48.884;12.598;2023-10-19T09:26:00;12.40;1.00
64654;DHT22;51065;48.884;12.598;2023-10-19T09:28:28;12.40;1.00
64654;DHT22;51065;48.884;12.598;2023-10-19T09:30:55;12.20;1.00
64654;DHT22;51065;48.884;12.598;2023-10-19T09:33:21;12.30;1.00
64654;DHT22;51065;48.884;12.598;2023-10-19T09:35:50;12.30;1.00
64654;DHT22;51065;48.884;12.598;2023-10-19T09:38:19;12.50;1.00
64654;DHT22;51065;48.884;12.598;2023-10-19T09:40:51;12.80;1.00
64654;DHT22;51065;48.884;12.598;2023-10-19T09:43:43;13.10;1.00
64654;DHT22;51065;48.884;12.598;2023-10-19T09:46:11;13.20;1.00
64654;DHT22;51065;48.884;12.598;2023-10-19T09:48:48;13.10;1.00
64654;DHT22;51065;48.884;12.598;2023-10-19T09:51:14;13.30;1.00
64654;DHT22;51065;48.884;12.598;2023-10-19T09:53:46;13.10;1.00
64654;DHT22;51065;48.884;12.598;2023-10-19T09:56:20;13.20;1.00
64654;DHT22;51065;48.884;12.598;2023-10-19T09:58:49;13.30;1.00
64654;DHT22;51065;48.884;12.598;2023-10-19T10:01:16;13.50;1.00
64654;DHT22;51065;48.884;12.598;2023-10-19T10:06:14;13.20;1.00
64654;DHT22;51065;48.884;12.598;2023-10-19T10:08:42;13.00;1.00
64654;DHT22;51065;48.884;12.598;2023-10-19T10:11:19;13.10;1.00
64654;DHT22;51065;48.884;12.598;2023-10-19T10:13:46;13.20;1.00
64654;DHT22;51065;48.884;12.598;2023-10-19T10:16:17;13.50;1.00
64654;DHT22;51065;48.884;12.598;2023-10-19T10:18:46;13.40;1.00
64654;DHT22;51065;48.884;12.598;2023-10-19T10:21:21;13.30;1.00
64654;DHT22;51065;48.884;12.598;2023-10-19T10:24:02;13.20;1.00
64654;DHT22;51065;48.884;12.598;2023-10-19T10:27:01;12.90;1.40
64654;DHT22;51065;48.884;12.598;2023-10-19T10:36:23;13.00;65.00
64654;DHT22;51065;48.884;12.598;2023-10-19T10:39:04;13.00;37.50
64654;DHT22;51065;48.884;12.598;2023-10-19T10:41:45;13.10;60.40
64654;DHT22;51065;48.884;12.598;2023-10-19T10:44:36;13.30;12.90
64654;DHT22;51065;48.884;12.598;2023-10-19T10:47:09;13.30;6.00
64654;DHT22;51065;48.884;12.598;2023-10-19T10:49:58;13.20;43.60
64654;DHT22;51065;48.884;12.598;2023-10-19T10:52:33;13.20;1.00
64654;DHT22;51065;48.884;12.598;2023-10-19T10:55:07;13.40;1.00
64654;DHT22;51065;48.884;12.598;2023-10-19T10:57:34;13.40;53.00
64654;DHT22;51065;48.884;12.598;2023-10-19T11:00:22;13.60;1.00
64654;DHT22;51065;48.884;12.598;2023-10-19T11:03:01;13.50;1.00
64654;DHT22;51065;48.884;12.598;2023-10-19T11:05:27;13.40;1.00
64654;DHT22;51065;48.884;12.598;2023-10-19T11:10:32;13.70;1.00
64654;DHT22;51065;48.884;12.598;2023-10-19T11:13:06;13.70;1.00
64654;DHT22;51065;48.884;12.598;2023-10-19T11:15:33;13.70;1.00
64654;DHT22;51065;48.884;12.598;2023-10-19T11:17:59;13.70;30.00
64654;DHT22;51065;48.884;12.598;2023-10-19T11:20:25;13.60;28.80
64654;DHT22;51065;48.884;12.598;2023-10-19T11:22:53;13.40;88.90
64654;DHT22;51065;48.884;12.598;2023-10-19T11:25:27;13.40;82.30
64654;DHT22;51065;48.884;12.598;2023-10-19T11:27:54;13.40;93.30
64654;DHT22;51065;48.884;12.598;2023-10-19T11:30:27;13.40;90.70
64654;DHT22;51065;48.884;12.598;2023-10-19T11:32:53;13.30;99.90
64654;DHT22;51065;48.884;12.598;2023-10-19T11:35:26;13.30;76.90
64654;DHT22;51065;48.884;12.598;2023-10-19T11:37:55;13.10;99.90
64654;DHT22;51065;48.884;12.598;2023-10-19T11:40:22;13.00;99.90
64654;DHT22;51065;48.884;12.598;2023-10-19T11:42:49;12.90;99.90
64654;DHT22;51065;48.884;12.598;2023-10-19T11:45:15;12.90;99.90
64654;DHT22;51065;48.884;12.598;2023-10-19T11:47:43;12.80;99.90
64654;DHT22;51065;48.884;12.598;2023-10-19T11:50:08;12.70;99.90
64654;DHT22;51065;48.884;12.598;2023-10-19T11:52:38;12.60;99.90
64654;DHT22;51065;48.884;12.598;2023-10-19T11:55:04;12.50;99.90
64654;DHT22;51065;48.884;12.598;2023-10-19T11:57:30;12.50;99.90
64654;DHT22;51065;48.884;12.598;2023-10-19T11:59:56;12.40;99.90
64654;DHT22;51065;48.884;12.598;2023-10-19T12:02:22;12.40;99.90
64654;DHT22;51065;48.884;12.598;2023-10-19T12:04:48;12.50;99.90
64654;DHT22;51065;48.884;12.598;2023-10-19T12:07:13;12.40;99.90
64654;DHT22;51065;48.884;12.598;2023-10-19T12:09:39;12.60;99.90
64654;DHT22;51065;48.884;12.598;2023-10-19T12:12:07;12.70;99.90
64654;DHT22;51065;48.884;12.598;2023-10-19T12:14:35;12.80;99.90
64654;DHT22;51065;48.884;12.598;2023-10-19T12:17:01;12.90;99.90
64654;DHT22;51065;48.884;12.598;2023-10-19T12:19:30;13.10;99.90
64654;DHT22;51065;48.884;12.598;2023-10-19T12:21:57;13.30;99.90
64654;DHT22;51065;48.884;12.598;2023-10-19T12:24:23;13.40;99.90
64654;DHT22;51065;48.884;12.598;2023-10-19T12:26:49;13.40;99.90
64654;DHT22;51065;48.884;12.598;2023-10-19T12:29:16;13.50;99.90
64654;DHT22;51065;48.884;12.598;2023-10-19T12:31:42;13.50;99.90
64654;DHT22;51065;48.884;12.598;2023-10-19T12:34:08;13.50;99.90
64654;DHT22;51065;48.884;12.598;2023-10-19T12:36:37;13.60;99.90
64654;DHT22;51065;48.884;12.598;2023-10-19T12:39:03;13.60;79.60
64654;DHT22;51065;48.884;12.598;2023-10-19T12:41:33;13.40;99.90
64654;DHT22;51065;48.884;12.598;2023-10-19T12:43:59;13.40;99.90
64654;DHT22;51065;48.884;12.598;2023-10-19T12:46:28;13.40;99.90
64654;DHT22;51065;48.884;12.598;2023-10-19T12:48:58;13.60;99.90
64654;DHT22;51065;48.884;12.598;2023-10-19T12:51:24;13.50;99.90
64654;DHT22;51065;48.884;12.598;2023-10-19T12:53:53;13.40;99.90
64654;DHT22;51065;48.884;12.598;2023-10-19T12:56:20;13.30;99.90
64654;DHT22;51065;48.884;12.598;2023-10-19T12:58:46;13.30;99.90
64654;DHT22;51065;48.884;12.598;2023-10-19T13:01:14;13.30;99.90
64654;DHT22;51065;48.884;12.598;2023-10-19T13:03:45;13.20;99.90
64654;DHT22;51065;48.884;12.598;2023-10-19T13:06:14;13.00;99.90
64654;DHT22;51065;48.884;12.598;2023-10-19T13:08:41;13.10;99.90
64654;DHT22;51065;48.884;12.598;2023-10-19T13:11:08;13.30;99.90
64654;DHT22;51065;48.884;12.598;2023-10-19T13:13:34;13.40;99.90
64654;DHT22;51065;48.884;12.598;2023-10-19T13:16:02;13.50;99.90
64654;DHT22;51065;48.884;12.598;2023-10-19T13:18:31;13.40;99.90
64654;DHT22;51065;48.884;12.598;2023-10-19T13:21:00;13.20;99.90
64654;DHT22;51065;48.884;12.598;2023-10-19T13:23:30;13.10;99.90
64654;DHT22;51065;48.884;12.598;2023-10-19T13:25:59;12.80;99.90
64654;DHT22;51065;48.884;12.598;2023-10-19T13:28:45;12.60;99.90
64654;DHT22;51065;48.884;12.598;2023-10-19T13:31:12;12.60;99.90
64654;DHT22;51065;48.884;12.598;2023-10-19T13:33:41;12.60;99.90
64654;DHT22;51065;48.884;12.598;2023-10-19T13:36:09;12.60;99.90
64654;DHT22;51065;48.884;12.598;2023-10-19T13:38:36;12.70;99.90
64654;DHT22;51065;48.884;12.598;2023-10-19T13:41:05;12.70;99.90
64654;DHT22;51065;48.884;12.598;2023-10-19T13:43:34;12.90;99.90
64654;DHT22;51065;48.884;12.598;2023-10-19T13:46:00;12.90;99.90
64654;DHT22;51065;48.884;12.598;2023-10-19T13:48:27;13.00;99.90
64654;DHT22;51065;48.884;12.598;2023-10-19T13:50:53;13.00;99.90
64654;DHT22;51065;48.884;12.598;2023-10-19T13:53:26;13.00;99.90
64654;DHT22;51065;48.884;12.598;2023-10-19T13:55:52;13.10;99.90
64654;DHT22;51065;48.884;12.598;2023-10-19T13:58:18;13.20;99.90
64654;DHT22;51065;48.884;12.598;2023-10-19T14:00:43;13.30;99.90
64654;DHT22;51065;48.884;12.598;2023-10-19T14:03:11;13.30;99.90
64654;DHT22;51065;48.884;12.598;2023-10-19T14:05:43;13.30;99.90
64654;DHT22;51065;48.884;12.598;2023-10-19T14:08:13;13.40;99.90
64654;DHT22;51065;48.884;12.598;2023-10-19T14:10:39;13.40;99.90
64654;DHT22;51065;48.884;12.598;2023-10-19T14:13:07;13.40;99.90
64654;DHT22;51065;48.884;12.598;2023-10-19T14:15:32;13.50;99.90
64654;DHT22;51065;48.884;12.598;2023-10-19T14:18:00;13.50;99.90
64654;DHT22;51065;48.884;12.598;2023-10-19T14:20:28;13.70;99.90
64654;DHT22;51065;48.884;12.598;2023-10-19T14:22:53;13.90;99.90
64654;DHT22;51065;48.884;12.598;2023-10-19T14:25:19;14.10;99.90
64654;DHT22;51065;48.884;12.598;2023-10-19T14:27:48;14.30;99.90
64654;DHT22;51065;48.884;12.598;2023-10-19T14:30:17;14.30;99.90
64654;DHT22;51065;48.884;12.598;2023-10-19T14:32:46;14.30;99.90
64654;DHT22;51065;48.884;12.598;2023-10-19T14:35:16;14.20;99.90
64654;DHT22;51065;48.884;12.598;2023-10-19T14:37:44;14.00;99.90
64654;DHT22;51065;48.884;12.598;2023-10-19T14:40:12;13.90;99.90
64654;DHT22;51065;48.884;12.598;2023-10-19T14:42:41;13.80;99.90
64654;DHT22;51065;48.884;12.598;2023-10-19T14:45:09;13.70;99.90
64654;DHT22;51065;48.884;12.598;2023-10-19T14:47:38;13.50;99.90
64654;DHT22;51065;48.884;12.598;2023-10-19T14:50:06;13.30;99.90
64654;DHT22;51065;48.884;12.598;2023-10-19T14:52:32;13.20;99.90
64654;DHT22;51065;48.884;12.598;2023-10-19T14:54:58;13.10;99.90
64654;DHT22;51065;48.884;12.598;2023-10-19T14:57:25;13.10;99.90
64654;DHT22;51065;48.884;12.598;2023-10-19T14:59:51;13.10;99.90
64654;DHT22;51065;48.884;12.598;2023-10-19T15:02:17;13.10;99.90
64654;DHT22;51065;48.884;12.598;2023-10-19T15:04:45;13.10;99.90
64654;DHT22;51065;48.884;12.598;2023-10-19T15:07:11;13.00;99.90
64654;DHT22;51065;48.884;12.598;2023-10-19T15:09:37;13.00;99.90
64654;DHT22;51065;48.884;12.598;2023-10-19T15:12:03;12.90;99.90
64654;DHT22;51065;48.884;12.598;2023-10-19T15:14:29;12.90;99.90
64654;DHT22;51065;48.884;12.598;2023-10-19T15:16:54;12.90;99.90
64654;DHT22;51065;48.884;12.598;2023-10-19T15:19:20;12.80;99.90
64654;DHT22;51065;48.884;12.598;2023-10-19T15:21:46;12.80;99.90
64654;DHT22;51065;48.884;12.598;2023-10-19T15:24:14;12.80;99.90
64654;DHT22;51065;48.884;12.598;2023-10-19T15:26:41;12.80;99.90
64654;DHT22;51065;48.884;12.598;2023-10-19T15:29:08;12.70;99.90
64654;DHT22;51065;48.884;12.598;2023-10-19T15:31:34;12.70;99.90
64654;DHT22;51065;48.884;12.598;2023-10-19T15:34:00;12.70;99.90
64654;DHT22;51065;48.884;12.598;2023-10-19T15:36:26;12.70;99.90
64654;DHT22;51065;48.884;12.598;2023-10-19T15:38:52;12.60;99.90
64654;DHT22;51065;48.884;12.598;2023-10-19T15:41:18;12.60;99.90
64654;DHT22;51065;48.884;12.598;2023-10-19T15:43:43;12.50;99.90
64654;DHT22;51065;48.884;12.598;2023-10-19T15:46:09;12.50;99.90